Flugplatz Buchel Airport

Bericht für ETSB

vom 15.07. um 16:20 UTC

Wind 6 kt aus 320°

Sichtweite 10 km oder mehr

Temperatur 17.0°C

Taupunkt 8.0°C

Luftfeuchtigkeit 55%

Luftdruck 1015 hPa

ETSB 151620Z AUTO 32006KT 9999 // ////// 17/08 Q1015 ///

Prognose für ETSB

vom 15.07. um 10:06 UTC

Zwischen 11:00 UTC und 20:00 UTC

Wind 7 kt aus 320°

Sichtweite 10 km oder mehr

keine signifikanten Wettererscheinungen

aufgebrochene Bewölkung in 5000 ft

TAF ETSB 151006Z 1511/1520 32007KT 9999 NSW BKN050 BY ETGL
Impressum